Time;durP1;ratioP1;P1;durP2;ratioP2;P2;SDS_P1;SDS_P2;PMS_P1;PMS_P2;Temp;Humidity;BMP_temperature;BMP_pressure;BME280_temperature;BME280_humidity;BME280_pressure;Samples;Min_cycle;Max_cycle;Signal;HPM_P1;HPM_P2
2024/03/25 00:01:51;;;;;;;9.30;6.60;;;;;;;6.00;80.82;97142.38;5072346;28;20397;-75
2024/03/25 00:04:16;;;;;;;7.68;6.25;;;;;;;6.03;80.82;97135.75;5072923;28;20038;-75
2024/03/25 00:06:42;;;;;;;8.48;6.65;;;;;;;6.11;80.35;97144.16;5094512;28;20028;-74
2024/03/25 00:09:13;;;;;;;10.05;6.55;;;;;;;6.16;80.17;97146.16;5087394;28;20043;-76
2024/03/25 00:11:39;;;;;;;7.45;6.57;;;;;;;6.10;80.24;97144.44;5062591;28;20076;-76
2024/03/25 00:14:04;;;;;;;12.23;6.97;;;;;;;6.04;79.76;97145.41;5087485;28;20031;-76
2024/03/25 00:16:29;;;;;;;7.53;6.70;;;;;;;6.12;79.58;97145.00;5072524;28;20113;-76
2024/03/25 00:18:55;;;;;;;9.25;7.20;;;;;;;5.96;80.46;97145.78;5078108;28;20055;-76
2024/03/25 00:21:20;;;;;;;9.38;6.90;;;;;;;6.03;80.03;97151.78;5088324;28;20032;-77
2024/03/25 00:23:45;;;;;;;7.25;6.55;;;;;;;6.16;80.02;97162.19;5069234;28;20110;-76
2024/03/25 00:26:11;;;;;;;8.75;6.70;;;;;;;6.22;80.40;97171.91;5074423;28;20479;-76
2024/03/25 00:28:37;;;;;;;7.65;5.97;;;;;;;6.09;79.78;97167.66;5074739;28;20032;-76
2024/03/25 00:31:02;;;;;;;9.65;7.30;;;;;;;6.09;80.33;97150.84;5077363;28;20379;-76
2024/03/25 00:33:28;;;;;;;13.05;7.07;;;;;;;5.89;80.50;97150.47;5078298;28;20020;-75
2024/03/25 00:35:53;;;;;;;8.98;6.53;;;;;;;6.05;80.53;97149.69;5060918;28;20036;-77
2024/03/25 00:38:19;;;;;;;9.25;6.65;;;;;;;6.02;80.46;97152.84;5057735;28;20023;-76
2024/03/25 00:40:44;;;;;;;11.82;7.40;;;;;;;5.94;81.20;97163.91;5074862;28;20054;-77
2024/03/25 00:43:10;;;;;;;9.70;7.15;;;;;;;5.99;80.94;97172.03;5057569;28;20024;-76
2024/03/25 00:45:35;;;;;;;11.38;7.72;;;;;;;5.99;80.90;97166.69;5073816;28;20040;-76
2024/03/25 00:48:01;;;;;;;10.70;7.15;;;;;;;6.02;80.39;97166.22;5077601;28;20020;-76
2024/03/25 00:50:26;;;;;;;8.82;7.97;;;;;;;6.02;81.45;97166.22;5061083;28;20384;-76
2024/03/25 00:52:52;;;;;;;10.57;7.43;;;;;;;6.10;80.76;97147.09;5077459;28;20028;-76
2024/03/25 00:55:18;;;;;;;10.82;7.90;;;;;;;6.10;80.60;97152.44;5077569;28;20036;-76
2024/03/25 00:57:43;;;;;;;11.88;8.10;;;;;;;6.02;81.85;97160.88;5059995;28;20089;-75
2024/03/25 01:00:09;;;;;;;11.32;8.45;;;;;;;6.00;81.86;97146.91;5065957;28;20491;-78
2024/03/25 01:02:35;;;;;;;10.60;9.23;;;;;;;5.93;81.39;97140.91;5090332;28;20051;-76
2024/03/25 01:05:00;;;;;;;10.52;8.65;;;;;;;5.98;81.06;97133.81;5093515;28;20498;-78
2024/03/25 01:07:25;;;;;;;10.25;7.85;;;;;;;6.17;81.14;97159.25;5057677;28;20028;-77
2024/03/25 01:09:51;;;;;;;10.75;8.50;;;;;;;5.84;82.08;97118.28;5078726;28;20088;-75
2024/03/25 01:12:16;;;;;;;10.65;8.50;;;;;;;6.06;81.47;97156.66;5081745;28;20138;-77
2024/03/25 01:14:42;;;;;;;10.85;8.98;;;;;;;6.01;81.94;97152.03;5058644;28;20486;-76
2024/03/25 01:17:07;;;;;;;12.23;8.00;;;;;;;6.01;81.56;97161.91;5086945;28;20016;-75
2024/03/25 01:19:33;;;;;;;12.45;8.55;;;;;;;6.03;81.69;97154.47;5061663;28;20036;-77
2024/03/25 01:21:58;;;;;;;10.35;7.45;;;;;;;5.96;81.13;97154.63;5089712;28;20028;-78
2024/03/25 01:24:25;;;;;;;8.73;7.35;;;;;;;6.01;81.12;97159.25;5095296;28;20070;-78
2024/03/25 01:26:50;;;;;;;10.15;7.88;;;;;;;6.11;80.83;97173.56;5081315;28;20035;-77
2024/03/25 01:29:15;;;;;;;8.85;7.57;;;;;;;5.95;80.57;97144.19;5077451;28;20031;-77
2024/03/25 01:31:41;;;;;;;11.63;7.90;;;;;;;6.08;80.61;97155.38;5077881;28;20024;-76
2024/03/25 01:34:06;;;;;;;9.73;8.23;;;;;;;6.06;80.06;97145.97;5080493;28;20031;-76
2024/03/25 01:36:32;;;;;;;9.98;7.72;;;;;;;6.10;81.00;97147.91;5075518;28;20114;-76
2024/03/25 01:38:57;;;;;;;10.88;7.82;;;;;;;6.13;80.70;97173.34;5092828;28;20054;-76
2024/03/25 01:41:23;;;;;;;9.05;7.40;;;;;;;6.12;81.24;97185.09;5065692;28;20114;-77
2024/03/25 01:43:48;;;;;;;10.20;8.02;;;;;;;6.04;81.27;97174.81;5076684;28;20055;-77
2024/03/25 01:46:15;;;;;;;8.73;7.78;;;;;;;5.91;81.24;97159.06;5072476;28;20034;-77
2024/03/25 01:48:42;;;;;;;11.15;7.85;;;;;;;6.06;81.36;97186.06;5054588;28;20032;-75
2024/03/25 01:51:07;;;;;;;9.80;7.75;;;;;;;5.93;81.29;97160.44;5075219;28;20039;-75
2024/03/25 01:53:32;;;;;;;9.50;7.43;;;;;;;6.01;81.17;97169.94;5079726;28;20032;-75
2024/03/25 01:55:59;;;;;;;10.77;8.35;;;;;;;5.84;81.07;97158.34;5078424;28;20582;-75
2024/03/25 01:58:25;;;;;;;8.85;7.55;;;;;;;5.97;81.57;97182.97;5072420;28;20640;-75
2024/03/25 02:00:52;;;;;;;9.75;7.75;;;;;;;5.96;81.21;97169.84;5094724;28;20019;-74
2024/03/25 02:03:18;;;;;;;8.82;7.90;;;;;;;6.05;80.20;97176.41;5079247;28;20034;-75
2024/03/25 02:05:43;;;;;;;11.30;8.02;;;;;;;5.89;82.02;97166.50;5060631;28;20383;-75
2024/03/25 02:08:09;;;;;;;8.77;7.30;;;;;;;5.96;81.75;97180.53;5072479;28;20027;-75
2024/03/25 02:10:35;;;;;;;10.13;7.53;;;;;;;6.01;80.80;97178.75;5060543;28;20115;-76
2024/03/25 02:13:01;;;;;;;9.70;7.43;;;;;;;5.96;81.45;97180.53;5094446;28;20067;-76
2024/03/25 02:15:26;;;;;;;10.18;8.20;;;;;;;5.59;81.81;97124.81;5057745;28;20016;-77
2024/03/25 02:17:52;;;;;;;9.63;8.00;;;;;;;6.03;80.70;97189.19;5076637;28;20134;-76
2024/03/25 02:20:17;;;;;;;9.98;7.78;;;;;;;6.03;81.01;97173.16;5058283;28;20012;-76
2024/03/25 02:22:43;;;;;;;10.00;8.15;;;;;;;5.94;81.46;97187.97;5052935;28;20380;-75
2024/03/25 02:25:09;;;;;;;9.50;7.72;;;;;;;6.06;81.25;97183.38;5077747;28;20087;-77
2024/03/25 02:27:38;;;;;;;13.52;8.55;;;;;;;5.87;81.37;97164.06;5094256;28;20440;-76
2024/03/25 02:30:09;;;;;;;10.90;8.18;;;;;;;6.10;81.64;97189.84;5093119;28;20019;-76
2024/03/25 02:32:35;;;;;;;11.63;8.60;;;;;;;6.13;81.74;97200.06;5078649;28;20502;-77
2024/03/25 02:35:02;;;;;;;9.73;8.55;;;;;;;6.19;80.99;97183.06;5081192;28;20418;-76
2024/03/25 02:37:28;;;;;;;11.02;8.88;;;;;;;6.12;80.54;97179.72;5078050;28;20513;-76
2024/03/25 02:39:57;;;;;;;9.98;8.02;;;;;;;6.02;81.52;97171.56;5064143;28;20103;-77
2024/03/25 02:42:22;;;;;;;11.05;9.30;;;;;;;6.03;82.07;97194.53;5077220;28;20032;-77
2024/03/25 02:44:48;;;;;;;12.85;8.85;;;;;;;6.10;81.40;97200.56;5064183;28;20398;-75
2024/03/25 02:47:13;;;;;;;10.43;8.40;;;;;;;5.93;81.12;97189.00;5057551;28;20063;-77
2024/03/25 02:49:39;;;;;;;10.20;8.98;;;;;;;6.15;80.93;97214.00;5064764;28;20023;-76
2024/03/25 02:52:04;;;;;;;14.63;8.85;;;;;;;5.86;81.24;97188.38;5081410;28;20039;-77
2024/03/25 02:54:29;;;;;;;9.82;8.80;;;;;;;5.95;81.74;97170.91;5066027;28;20064;-76
2024/03/25 02:56:55;;;;;;;10.75;8.63;;;;;;;6.14;80.70;97196.34;5063414;28;20036;-75
2024/03/25 02:59:20;;;;;;;12.70;9.70;;;;;;;6.15;81.14;97197.97;5078203;28;20089;-76
2024/03/25 03:01:46;;;;;;;10.75;8.75;;;;;;;6.12;81.36;97198.44;5062393;28;20046;-76
2024/03/25 03:04:11;;;;;;;10.75;9.40;;;;;;;5.97;82.03;97216.88;5068664;28;20097;-76
2024/03/25 03:06:36;;;;;;;11.02;9.82;;;;;;;5.99;81.50;97191.56;5110337;28;20024;-76
2024/03/25 03:09:02;;;;;;;10.65;8.73;;;;;;;6.00;81.59;97216.38;5081396;28;20534;-76
2024/03/25 03:11:27;;;;;;;10.43;8.70;;;;;;;5.98;82.25;97221.16;5078060;28;20040;-77
2024/03/25 03:13:52;;;;;;;14.98;9.32;;;;;;;5.89;82.60;97209.25;5064396;28;20067;-77
2024/03/25 03:16:18;;;;;;;12.02;9.23;;;;;;;5.98;81.93;97210.47;5084264;28;20040;-78
2024/03/25 03:18:43;;;;;;;12.20;9.30;;;;;;;5.93;81.71;97215.72;5066440;28;20056;-77
2024/03/25 03:21:08;;;;;;;9.77;8.75;;;;;;;5.91;82.31;97217.84;5118851;28;20433;-77
2024/03/25 03:23:34;;;;;;;12.98;8.60;;;;;;;5.91;82.85;97212.47;5066984;28;20031;-78
2024/03/25 03:26:00;;;;;;;8.95;7.75;;;;;;;5.82;82.15;97208.53;5083776;28;20047;-77
2024/03/25 03:28:26;;;;;;;13.77;8.32;;;;;;;5.87;81.70;97198.81;5101218;28;20030;-75
2024/03/25 03:30:52;;;;;;;11.85;8.27;;;;;;;5.80;81.63;97197.28;5081699;28;20410;-76
2024/03/25 03:33:17;;;;;;;9.75;7.70;;;;;;;5.80;82.26;97207.97;5061973;28;20035;-76
2024/03/25 03:35:43;;;;;;;9.15;7.80;;;;;;;5.87;81.97;97227.38;5076870;28;20038;-75
2024/03/25 03:38:08;;;;;;;10.65;8.05;;;;;;;5.77;81.72;97211.13;5087156;28;20023;-76
2024/03/25 03:40:33;;;;;;;10.23;7.45;;;;;;;5.80;82.22;97216.00;5100069;28;20062;-76
2024/03/25 03:42:59;;;;;;;8.70;7.80;;;;;;;5.97;81.48;97222.25;5063331;28;20023;-74
2024/03/25 03:45:25;;;;;;;9.90;7.68;;;;;;;6.08;81.81;97229.38;5099904;28;20043;-76
2024/03/25 03:47:50;;;;;;;9.55;7.95;;;;;;;5.92;81.38;97219.47;5074493;28;20079;-75
2024/03/25 03:50:16;;;;;;;8.40;6.72;;;;;;;6.04;79.84;97225.56;5076378;28;20038;-76
2024/03/25 03:52:41;;;;;;;11.18;7.57;;;;;;;6.01;81.13;97218.03;5075317;28;20027;-74
2024/03/25 03:55:07;;;;;;;8.90;6.82;;;;;;;5.89;80.85;97210.06;5079509;28;20406;-76
2024/03/25 03:57:32;;;;;;;8.25;6.28;;;;;;;5.87;80.06;97217.50;5080797;28;20038;-75
2024/03/25 03:59:58;;;;;;;8.98;5.40;;;;;;;5.83;79.27;97221.69;5084708;28;20110;-76
2024/03/25 04:02:23;;;;;;;8.27;4.90;;;;;;;5.93;78.85;97242.44;5066073;28;20023;-76
2024/03/25 04:04:49;;;;;;;9.23;5.35;;;;;;;5.81;78.18;97231.78;5082141;28;20031;-77
2024/03/25 04:07:15;;;;;;;8.80;4.10;;;;;;;5.98;77.29;97234.53;5063721;28;20027;-77
2024/03/25 04:09:40;;;;;;;7.95;4.43;;;;;;;5.96;77.40;97250.00;5097002;28;20054;-76
2024/03/25 04:12:05;;;;;;;5.50;3.85;;;;;;;5.77;77.15;97232.47;5072652;28;20027;-76
2024/03/25 04:14:31;;;;;;;11.00;4.10;;;;;;;5.71;77.72;97225.44;5062042;28;20388;-76
2024/03/25 04:16:56;;;;;;;7.85;4.50;;;;;;;5.66;77.98;97220.81;5061005;28;20097;-77
2024/03/25 04:19:25;;;;;;;9.73;5.88;;;;;;;5.85;79.10;97256.19;5083492;28;20039;-77
2024/03/25 04:21:51;;;;;;;8.43;5.68;;;;;;;5.85;79.05;97261.53;5083172;28;20403;-77
2024/03/25 04:24:17;;;;;;;9.00;5.93;;;;;;;5.81;79.26;97241.66;5065024;28;20039;-75
2024/03/25 04:26:44;;;;;;;9.00;6.20;;;;;;;5.78;79.62;97255.50;5077663;28;20020;-74
2024/03/25 04:29:09;;;;;;;10.07;6.22;;;;;;;5.85;79.05;97238.31;5061491;28;20502;-75
2024/03/25 04:31:36;;;;;;;9.98;5.60;;;;;;;5.75;79.63;97246.09;5061476;28;20035;-74
2024/03/25 04:34:01;;;;;;;7.95;6.13;;;;;;;5.87;79.63;97259.44;5077699;28;20501;-75
2024/03/25 04:36:27;;;;;;;11.88;5.85;;;;;;;5.91;79.29;97250.72;5059281;28;20107;-75
2024/03/25 04:38:52;;;;;;;7.22;5.07;;;;;;;5.91;78.73;97253.38;5061409;28;20027;-76
2024/03/25 04:41:17;;;;;;;9.95;5.05;;;;;;;5.91;78.27;97257.91;5071838;28;20470;-76
2024/03/25 04:43:43;;;;;;;9.98;5.20;;;;;;;5.69;77.57;97246.22;5079266;28;20032;-78
2024/03/25 04:46:08;;;;;;;8.20;4.93;;;;;;;5.76;78.29;97254.91;5078366;28;20080;-77
2024/03/25 04:48:33;;;;;;;8.60;4.60;;;;;;;5.65;78.36;97223.72;5076182;28;20035;-78
2024/03/25 04:51:00;;;;;;;6.47;4.25;;;;;;;5.82;77.68;97248.63;5064435;28;20024;-77
2024/03/25 04:53:25;;;;;;;6.85;4.53;;;;;;;5.85;77.14;97245.50;5075655;28;20422;-78
2024/03/25 04:55:51;;;;;;;8.90;3.90;;;;;;;5.79;76.73;97252.56;5096418;28;20135;-77
2024/03/25 04:58:16;;;;;;;6.25;4.05;;;;;;;5.93;77.18;97286.00;5074440;28;20031;-77
2024/03/25 05:00:41;;;;;;;7.57;3.97;;;;;;;5.71;77.47;97270.84;5060125;28;20632;-76
2024/03/25 05:03:07;;;;;;;9.05;4.15;;;;;;;5.63;76.81;97253.31;5063291;28;20031;-77
2024/03/25 05:05:33;;;;;;;6.85;3.97;;;;;;;5.83;78.07;97293.00;5077479;28;20024;-77
2024/03/25 05:07:59;;;;;;;6.68;3.58;;;;;;;5.86;76.53;97285.34;5077558;28;20403;-76
2024/03/25 05:10:24;;;;;;;9.27;4.18;;;;;;;5.95;77.33;97293.81;5078191;28;20078;-77
2024/03/25 05:12:49;;;;;;;7.07;4.18;;;;;;;6.05;77.30;97288.66;5077508;28;20040;-77
2024/03/25 05:15:15;;;;;;;8.15;4.50;;;;;;;6.01;76.73;97298.19;5068533;28;20487;-75
2024/03/25 05:17:41;;;;;;;11.23;4.95;;;;;;;5.91;77.34;97271.25;5059431;28;20031;-75
2024/03/25 05:20:07;;;;;;;8.18;5.60;;;;;;;5.97;77.72;97275.69;5091652;28;20084;-76
2024/03/25 05:22:32;;;;;;;11.05;6.45;;;;;;;6.09;77.99;97312.00;5094922;28;20032;-76
2024/03/25 05:24:58;;;;;;;13.25;8.57;;;;;;;6.05;78.85;97304.69;5072323;28;20020;-75
2024/03/25 05:27:24;;;;;;;12.68;8.60;;;;;;;6.12;78.74;97316.06;5082533;28;20046;-75
2024/03/25 05:29:49;;;;;;;12.50;7.28;;;;;;;5.95;79.57;97299.16;5073647;28;20020;-76
2024/03/25 05:32:16;;;;;;;10.95;7.53;;;;;;;5.97;80.00;97302.41;5073842;28;20134;-76
2024/03/25 05:34:42;;;;;;;10.77;7.50;;;;;;;5.79;79.47;97289.97;5077097;28;20020;-76
2024/03/25 05:37:07;;;;;;;12.48;8.73;;;;;;;5.87;80.06;97307.53;5057053;28;20039;-76
2024/03/25 05:39:32;;;;;;;10.98;7.88;;;;;;;5.69;80.50;97300.47;5077281;28;20030;-77
2024/03/25 05:41:58;;;;;;;9.55;7.75;;;;;;;5.92;80.47;97321.00;5063666;28;20038;-77
2024/03/25 05:44:23;;;;;;;12.93;10.95;;;;;;;5.70;80.54;97301.25;5068715;28;20394;-76
2024/03/25 05:46:49;;;;;;;18.63;16.63;;;;;;;5.92;79.97;97323.66;5092345;28;20126;-77
2024/03/25 05:49:14;;;;;;;12.23;9.60;;;;;;;5.80;80.31;97306.81;5068281;28;20007;-76
2024/03/25 05:51:39;;;;;;;19.10;16.20;;;;;;;5.83;80.00;97306.34;5073734;28;20523;-76
2024/03/25 05:54:05;;;;;;;18.00;15.88;;;;;;;5.84;79.20;97294.59;5067961;28;20028;-78
2024/03/25 05:56:30;;;;;;;26.42;23.98;;;;;;;5.73;79.92;97301.63;5079504;28;20148;-76
2024/03/25 05:58:57;;;;;;;11.30;8.40;;;;;;;5.94;79.71;97326.91;5053357;28;20031;-76
2024/03/25 06:01:22;;;;;;;9.55;7.63;;;;;;;5.92;78.58;97316.47;5071513;28;20032;-75
2024/03/25 06:03:47;;;;;;;10.65;8.00;;;;;;;5.83;79.87;97309.84;5077032;28;20019;-76
2024/03/25 06:06:13;;;;;;;11.05;7.57;;;;;;;5.97;79.78;97329.13;5066957;28;20037;-77
2024/03/25 06:08:38;;;;;;;11.00;8.60;;;;;;;5.86;78.89;97311.28;5055338;28;20031;-77
2024/03/25 06:11:04;;;;;;;10.23;9.20;;;;;;;5.96;79.66;97332.84;5080799;28;20111;-76
2024/03/25 06:13:29;;;;;;;13.23;7.88;;;;;;;6.07;78.82;97350.69;5078499;28;20475;-76
2024/03/25 06:15:55;;;;;;;14.25;12.85;;;;;;;6.02;79.19;97332.69;5109493;28;20040;-77
2024/03/25 06:18:20;;;;;;;14.90;11.30;;;;;;;6.05;79.03;97339.44;5063822;28;20024;-75
2024/03/25 06:20:46;;;;;;;11.60;8.50;;;;;;;5.97;78.53;97323.78;5079409;28;20067;-76
2024/03/25 06:23:22;;;;;;;12.30;8.30;;;;;;;5.94;78.15;97300.19;5078235;28;20023;-77
2024/03/25 06:25:47;;;;;;;10.75;6.95;;;;;;;5.97;78.19;97318.44;5062784;28;20080;-77
2024/03/25 06:28:13;;;;;;;10.18;8.07;;;;;;;6.09;78.13;97343.28;5050681;28;20020;-77
2024/03/25 06:36:07;;;;;;;11.40;6.78;;;;;;;6.08;78.27;97338.97;5077206;28;20031;-77
2024/03/25 06:38:33;;;;;;;10.65;7.95;;;;;;;6.19;78.21;97348.81;5073104;28;20105;-79
2024/03/25 06:40:58;;;;;;;10.55;7.55;;;;;;;6.04;78.11;97345.84;5080959;28;20127;-77
2024/03/25 06:43:24;;;;;;;10.38;6.95;;;;;;;6.06;78.04;97344.56;5074079;28;20471;-76
2024/03/25 06:45:49;;;;;;;10.60;6.38;;;;;;;6.03;77.81;97354.88;5062775;28;20039;-77
2024/03/25 06:48:14;;;;;;;9.48;6.40;;;;;;;6.06;77.88;97355.25;5071499;28;20022;-77
2024/03/25 06:50:40;;;;;;;11.32;6.50;;;;;;;6.18;78.00;97358.69;5067074;28;20594;-77
2024/03/25 06:53:05;;;;;;;9.65;6.15;;;;;;;6.02;77.80;97347.94;5076830;28;20472;-77
2024/03/25 06:55:31;;;;;;;9.10;5.47;;;;;;;5.99;77.07;97337.72;5080082;28;20046;-76
2024/03/25 06:57:56;;;;;;;11.73;6.25;;;;;;;5.83;78.10;97335.75;5074563;28;20028;-77
2024/03/25 07:00:22;;;;;;;10.65;6.32;;;;;;;6.04;77.09;97351.19;5074581;28;20048;-78
2024/03/25 07:02:48;;;;;;;11.25;7.43;;;;;;;6.18;77.17;97368.59;5077451;28;20023;-77
2024/03/25 07:05:13;;;;;;;11.25;6.10;;;;;;;6.07;77.90;97364.06;5076396;28;20028;-77
2024/03/25 07:07:39;;;;;;;9.45;5.82;;;;;;;5.81;77.86;97325.28;5076446;28;20437;-77
2024/03/25 07:10:05;;;;;;;7.65;5.57;;;;;;;5.96;76.98;97332.84;5069829;28;20059;-77
2024/03/25 07:12:30;;;;;;;9.82;6.70;;;;;;;5.90;77.38;97339.13;5075517;28;20023;-77
2024/03/25 07:14:55;;;;;;;10.68;6.18;;;;;;;5.89;77.12;97342.84;5063197;28;20483;-78
2024/03/25 07:17:23;;;;;;;9.52;5.85;;;;;;;6.10;76.98;97363.59;5071750;28;20035;-77
2024/03/25 07:19:50;;;;;;;10.07;5.88;;;;;;;5.96;76.33;97338.19;5064000;28;20575;-77
2024/03/25 07:22:16;;;;;;;8.50;5.45;;;;;;;6.16;77.15;97366.13;5065932;28;20032;-77
2024/03/25 07:24:41;;;;;;;10.45;5.60;;;;;;;6.27;76.17;97396.56;5079314;28;20042;-76
2024/03/25 07:27:08;;;;;;;9.05;5.25;;;;;;;6.08;76.15;97363.03;5070034;28;20024;-77
2024/03/25 07:29:33;;;;;;;10.85;5.72;;;;;;;6.19;75.62;97380.88;5071743;28;20085;-77
2024/03/25 07:31:58;;;;;;;9.25;5.25;;;;;;;6.06;75.77;97381.16;5061635;28;20417;-77
2024/03/25 07:34:26;;;;;;;9.05;5.43;;;;;;;6.06;76.02;97367.78;5056530;28;20043;-77
2024/03/25 07:36:51;;;;;;;11.27;5.88;;;;;;;6.29;75.57;97397.13;5075608;28;20032;-76
2024/03/25 07:39:17;;;;;;;8.93;4.93;;;;;;;6.07;73.88;97361.38;5089699;28;20032;-76
2024/03/25 07:41:42;;;;;;;12.07;5.70;;;;;;;6.23;75.36;97385.50;5062062;28;20024;-76
2024/03/25 07:44:08;;;;;;;9.02;5.30;;;;;;;6.14;75.36;97378.09;5063704;28;20028;-77
2024/03/25 07:46:33;;;;;;;10.48;5.32;;;;;;;6.31;74.43;97384.34;5029080;23;20107;-75
2024/03/25 07:48:58;;;;;;;10.98;5.38;;;;;;;6.25;74.23;97369.25;5035504;28;20040;-75
2024/03/25 07:51:24;;;;;;;10.60;5.63;;;;;;;6.21;75.03;97389.47;5010881;28;20026;-76
2024/03/25 07:53:49;;;;;;;10.50;5.30;;;;;;;6.22;75.25;97401.81;5044971;28;20033;-75
2024/03/25 07:56:15;;;;;;;13.35;5.30;;;;;;;6.28;74.51;97396.31;5029366;28;20025;-75
2024/03/25 07:58:41;;;;;;;10.98;5.05;;;;;;;6.43;74.03;97406.50;5020256;28;20076;-75
2024/03/25 08:01:07;;;;;;;11.60;5.30;;;;;;;6.38;74.09;97401.06;5035408;28;20410;-75
2024/03/25 08:03:33;;;;;;;9.20;5.13;;;;;;;6.50;74.95;97415.22;5018868;28;20035;-75
2024/03/25 08:05:58;;;;;;;9.32;4.88;;;;;;;6.52;74.36;97410.44;5051658;28;20484;-75
2024/03/25 08:08:24;;;;;;;13.20;5.30;;;;;;;6.54;74.27;97402.97;5053333;28;20044;-76
2024/03/25 08:10:49;;;;;;;7.95;4.70;;;;;;;6.60;72.95;97403.91;5037932;28;20079;-76
2024/03/25 08:13:14;;;;;;;9.60;5.55;;;;;;;6.59;74.29;97404.94;4999065;28;20515;-75
2024/03/25 08:15:41;;;;;;;9.50;4.88;;;;;;;6.55;72.54;97401.94;5062236;28;20021;-76
2024/03/25 08:18:06;;;;;;;9.82;4.93;;;;;;;6.75;71.88;97415.69;5019862;28;20569;-75
2024/03/25 08:20:32;;;;;;;8.23;4.20;;;;;;;6.62;71.54;97410.66;5025396;28;20036;-76
2024/03/25 08:22:57;;;;;;;11.75;5.13;;;;;;;6.46;71.65;97398.03;5034024;28;20036;-75
2024/03/25 08:25:22;;;;;;;11.68;5.18;;;;;;;6.64;72.15;97426.44;5028928;28;20453;-75
2024/03/25 08:27:48;;;;;;;8.85;4.55;;;;;;;6.56;72.80;97411.56;5048145;28;20037;-75
2024/03/25 08:30:13;;;;;;;8.75;4.85;;;;;;;6.68;72.45;97433.75;5018411;28;20024;-75
2024/03/25 08:32:39;;;;;;;8.15;4.80;;;;;;;6.76;71.51;97420.00;5035231;28;20059;-76
2024/03/25 08:35:04;;;;;;;11.52;4.97;;;;;;;6.85;71.74;97434.63;5052885;28;20400;-75
2024/03/25 08:37:29;;;;;;;9.35;4.53;;;;;;;6.70;73.08;97426.28;5051339;28;20048;-75
2024/03/25 08:39:55;;;;;;;11.57;4.45;;;;;;;6.98;71.70;97434.31;5000962;28;20041;-75
2024/03/25 08:42:21;;;;;;;8.27;4.70;;;;;;;6.72;71.54;97408.13;5018586;28;20029;-76
2024/03/25 08:44:46;;;;;;;11.48;4.57;;;;;;;6.78;71.28;97412.56;5034911;28;20056;-76
2024/03/25 08:47:12;;;;;;;10.23;4.82;;;;;;;6.83;71.88;97404.63;5034937;28;20115;-75
2024/03/25 08:49:37;;;;;;;6.55;4.22;;;;;;;7.10;70.91;97423.56;5029080;28;20022;-75
2024/03/25 08:52:03;;;;;;;10.95;4.95;;;;;;;7.08;70.33;97427.53;5050718;28;20040;-75
2024/03/25 08:54:28;;;;;;;9.35;4.93;;;;;;;6.91;70.68;97406.06;5018205;28;20028;-76
2024/03/25 08:56:54;;;;;;;12.18;4.65;;;;;;;6.90;70.32;97401.78;5034401;28;20043;-76
2024/03/25 08:59:19;;;;;;;8.50;4.90;;;;;;;6.97;70.43;97432.72;5013180;28;20021;-76
2024/03/25 09:01:45;;;;;;;9.30;4.35;;;;;;;7.10;70.38;97417.38;5008976;28;20064;-75
2024/03/25 09:04:10;;;;;;;9.27;5.03;;;;;;;7.20;70.08;97426.41;5032791;28;20021;-76
2024/03/25 09:06:36;;;;;;;6.78;4.47;;;;;;;7.11;70.06;97416.34;5034131;28;20041;-75
2024/03/25 09:11:46;;;;;;;11.48;4.90;;;;;;;7.34;67.96;97424.22;5020205;28;20399;-75
2024/03/25 09:14:12;;;;;;;8.02;4.25;;;;;;;7.34;68.60;97421.56;5034029;28;20021;-75
2024/03/25 09:16:37;;;;;;;8.05;4.35;;;;;;;7.34;69.31;97438.44;5017371;28;20036;-75
2024/03/25 09:19:02;;;;;;;6.00;4.00;;;;;;;7.25;67.72;97417.66;5014380;28;20029;-74
2024/03/25 09:21:29;;;;;;;8.18;4.10;;;;;;;7.60;67.25;97428.97;5017721;28;20065;-75
2024/03/25 09:23:56;;;;;;;8.48;4.40;;;;;;;7.40;67.78;97410.69;5030306;28;20017;-75
2024/03/25 09:26:22;;;;;;;9.40;4.22;;;;;;;7.60;68.65;97437.00;5009280;28;20036;-76
2024/03/25 09:28:47;;;;;;;8.27;4.35;;;;;;;7.58;67.83;97407.75;5017505;28;20365;-75
2024/03/25 09:31:12;;;;;;;8.13;4.18;;;;;;;7.81;67.57;97433.56;5017572;28;20546;-75
2024/03/25 09:33:38;;;;;;;8.38;3.92;;;;;;;7.70;66.76;97401.50;5033871;28;20115;-75
2024/03/25 09:36:04;;;;;;;8.50;4.03;;;;;;;7.59;66.84;97413.91;5033715;28;20037;-75
2024/03/25 09:38:29;;;;;;;9.20;4.38;;;;;;;7.80;67.66;97394.41;5038136;28;20021;-74
2024/03/25 09:40:56;;;;;;;9.07;4.43;;;;;;;7.91;66.58;97390.03;5038792;28;20091;-74
2024/03/25 09:43:32;;;;;;;11.43;4.30;;;;;;;8.13;65.98;97407.75;5024151;28;20039;-75
2024/03/25 09:46:00;;;;;;;8.30;3.83;;;;;;;8.10;67.18;97410.09;5057672;28;20037;-75
2024/03/25 09:48:26;;;;;;;7.28;4.40;;;;;;;8.16;66.57;97427.91;5058714;28;20029;-73
2024/03/25 09:50:52;;;;;;;6.50;4.18;;;;;;;8.15;64.70;97419.03;5040509;28;20704;-73
2024/03/25 09:53:18;;;;;;;7.18;3.53;;;;;;;8.38;63.71;97420.69;5023924;28;20021;-74
2024/03/25 09:55:46;;;;;;;7.18;3.70;;;;;;;8.32;63.97;97398.38;5023684;28;20033;-73
2024/03/25 09:58:12;;;;;;;6.97;3.78;;;;;;;8.25;65.02;97405.78;5048024;28;20103;-75
2024/03/25 10:00:38;;;;;;;6.15;4.10;;;;;;;8.46;65.19;97411.41;5040307;28;20047;-74
2024/03/25 10:03:06;;;;;;;6.70;3.40;;;;;;;8.52;63.22;97397.00;5034296;28;20025;-74
2024/03/25 10:05:32;;;;;;;5.88;3.25;;;;;;;8.65;62.72;97392.06;5040224;28;20041;-75
2024/03/25 10:07:57;;;;;;;8.27;4.00;;;;;;;8.40;62.35;97388.28;5019951;28;20029;-75
2024/03/25 10:10:23;;;;;;;5.50;3.17;;;;;;;8.72;61.89;97402.59;5035976;28;20112;-75
2024/03/25 10:12:48;;;;;;;5.28;3.08;;;;;;;8.57;60.76;97399.72;5041106;28;20029;-75
2024/03/25 10:15:16;;;;;;;5.03;3.08;;;;;;;8.49;61.65;97392.13;5060709;28;20099;-75
2024/03/25 10:17:43;;;;;;;5.15;3.10;;;;;;;8.69;59.19;97381.63;5022857;28;20029;-75
2024/03/25 10:20:13;;;;;;;4.57;3.03;;;;;;;8.70;59.84;97380.56;5040101;28;20029;-75
2024/03/25 10:22:42;;;;;;;6.53;3.72;;;;;;;8.77;60.62;97383.88;5049202;28;20033;-73
2024/03/25 10:25:19;;;;;;;4.95;2.90;;;;;;;8.70;59.28;97375.22;5037291;28;20032;-75
2024/03/25 10:27:53;;;;;;;8.10;3.22;;;;;;;8.70;59.36;97367.16;5037713;28;20044;-75
2024/03/25 10:30:19;;;;;;;6.70;3.53;;;;;;;8.78;58.95;97370.19;5040142;28;20043;-75
2024/03/25 10:32:44;;;;;;;3.88;2.25;;;;;;;8.87;56.49;97373.22;5035814;28;20475;-75
2024/03/25 10:35:10;;;;;;;4.40;2.72;;;;;;;8.80;57.24;97367.22;5032746;28;20078;-76
2024/03/25 10:37:38;;;;;;;5.68;3.10;;;;;;;8.85;58.01;97372.66;5025905;28;20029;-75
2024/03/25 10:40:05;;;;;;;7.55;2.90;;;;;;;8.91;57.88;97363.59;5051216;28;20036;-75
2024/03/25 10:42:30;;;;;;;6.35;2.92;;;;;;;8.78;59.42;97353.25;5051525;28;20107;-75
2024/03/25 10:44:56;;;;;;;4.35;2.90;;;;;;;8.94;59.14;97366.59;5034432;28;20124;-75
2024/03/25 10:47:25;;;;;;;5.88;3.20;;;;;;;9.05;57.50;97370.97;5039457;28;20495;-75
2024/03/25 10:49:56;;;;;;;7.30;3.05;;;;;;;8.78;58.66;97358.63;5039729;28;20108;-75
2024/03/25 10:52:22;;;;;;;4.65;2.90;;;;;;;8.98;57.19;97359.63;5037066;28;20076;-75
2024/03/25 10:54:47;;;;;;;3.65;2.70;;;;;;;8.91;57.17;97348.28;5050547;28;20029;-75
2024/03/25 10:57:13;;;;;;;3.90;2.70;;;;;;;9.12;56.04;97360.06;5036438;28;20484;-75
2024/03/25 10:59:41;;;;;;;3.30;2.42;;;;;;;8.97;55.68;97335.72;5036584;28;20025;-75
2024/03/25 11:02:07;;;;;;;4.20;2.60;;;;;;;9.11;57.93;97352.22;5032601;28;20103;-73
2024/03/25 11:04:33;;;;;;;4.85;2.45;;;;;;;9.43;54.99;97353.84;5032006;28;20385;-73
2024/03/25 11:07:12;;;;;;;5.55;2.30;;;;;;;9.44;53.86;97352.78;5049954;28;20045;-75
2024/03/25 11:09:38;;;;;;;3.75;2.35;;;;;;;9.57;52.56;97346.94;5019897;28;20646;-75
2024/03/25 11:12:04;;;;;;;12.75;6.93;;;;;;;9.60;53.63;97346.44;5036317;28;20096;-75
2024/03/25 11:14:31;;;;;;;4.63;2.50;;;;;;;9.75;52.19;97327.69;5054165;28;20032;-75
2024/03/25 11:16:57;;;;;;;5.65;2.75;;;;;;;10.13;50.97;97328.47;5053041;28;20031;-75
2024/03/25 11:19:26;;;;;;;6.05;2.80;;;;;;;10.23;53.14;97323.94;5019724;28;20041;-76
2024/03/25 11:21:51;;;;;;;6.28;2.85;;;;;;;10.53;53.51;97328.63;5019619;28;20049;-75
2024/03/25 11:24:27;;;;;;;5.40;2.28;;;;;;;10.46;50.30;97309.22;5019750;28;20560;-75
2024/03/25 11:26:52;;;;;;;;;;;;;;;10.56;50.33;97322.72;5035943;28;20443;-75
2024/03/25 11:29:18;;;;;;;4.67;2.37;;;;;;;10.51;51.92;97309.22;5019661;28;19909;-75
2024/03/25 11:31:44;;;;;;;4.82;2.42;;;;;;;10.70;49.82;97321.13;5035887;28;20036;-75
2024/03/25 11:34:10;;;;;;;4.57;2.60;;;;;;;10.39;50.13;97311.34;5015953;28;20087;-75
2024/03/25 11:36:36;;;;;;;6.25;2.40;;;;;;;9.95;50.06;97302.81;5041847;28;20527;-75
2024/03/25 11:39:08;;;;;;;3.13;2.20;;;;;;;10.15;50.90;97299.44;5027663;28;20037;-75
2024/03/25 11:41:35;;;;;;;5.43;2.70;;;;;;;10.41;50.72;97314.56;5036728;28;20047;-75